Watarrka Kings Canyon, Australia
Current Conditions -  °F | °C
As of 8:00 PM on Thursday 23 Oct 2014 (Local Time) from YAYE Reporting Station
Clear Clear  
Wind Chill: 84°   Ceiling: Unl
Heat Index: 84°   Visibility: 6mi
Dew Point: 27°   Wind: 0mph
Humidity: 12%   Direction: NA
Pressure: 29.97"   Gusts: NA
Location:  24.28°S, 131.53°E
Report Text: YAYE 231100Z AUTO 00000KT 9999 // NCD 29/M03 Q1015
Loading
Personal Weather Stations






























Interactive Weather Map
Tropical Storm Tracking
New forecast layout! Learn more

10-Day Weather Forecast

Advertisements
Track Severe Weather on mobile